sensor_id;sensor_type;location;lat;lon;timestamp;P1;durP1;ratioP1;P2;durP2;ratioP2
19030;SDS011;9648;51.130;13.978;2023-03-14T00:01:54;2.55;;;1.52;;
19030;SDS011;9648;51.130;13.978;2023-03-14T00:04:21;2.33;;;1.20;;
19030;SDS011;9648;51.130;13.978;2023-03-14T00:06:48;3.08;;;1.30;;
19030;SDS011;9648;51.130;13.978;2023-03-14T00:09:18;2.55;;;1.30;;
19030;SDS011;9648;51.130;13.978;2023-03-14T00:11:46;3.30;;;1.55;;
19030;SDS011;9648;51.130;13.978;2023-03-14T00:14:13;4.13;;;1.70;;
19030;SDS011;9648;51.130;13.978;2023-03-14T00:16:40;2.55;;;1.52;;
19030;SDS011;9648;51.130;13.978;2023-03-14T00:19:07;3.40;;;1.67;;
19030;SDS011;9648;51.130;13.978;2023-03-14T00:21:33;2.80;;;2.03;;
19030;SDS011;9648;51.130;13.978;2023-03-14T00:24:00;3.15;;;1.92;;
19030;SDS011;9648;51.130;13.978;2023-03-14T00:26:27;4.13;;;2.38;;
19030;SDS011;9648;51.130;13.978;2023-03-14T00:28:55;3.80;;;2.00;;
19030;SDS011;9648;51.130;13.978;2023-03-14T00:31:22;3.87;;;2.10;;
19030;SDS011;9648;51.130;13.978;2023-03-14T00:33:50;3.63;;;2.05;;
19030;SDS011;9648;51.130;13.978;2023-03-14T00:36:18;2.50;;;1.90;;
19030;SDS011;9648;51.130;13.978;2023-03-14T00:38:46;2.67;;;2.05;;
19030;SDS011;9648;51.130;13.978;2023-03-14T00:41:15;3.65;;;1.92;;
19030;SDS011;9648;51.130;13.978;2023-03-14T00:43:43;2.97;;;1.90;;
19030;SDS011;9648;51.130;13.978;2023-03-14T00:46:12;3.10;;;2.00;;
19030;SDS011;9648;51.130;13.978;2023-03-14T00:48:39;5.13;;;2.30;;
19030;SDS011;9648;51.130;13.978;2023-03-14T00:51:07;3.75;;;2.15;;
19030;SDS011;9648;51.130;13.978;2023-03-14T00:53:36;4.20;;;2.22;;
19030;SDS011;9648;51.130;13.978;2023-03-14T00:56:05;4.90;;;2.60;;
19030;SDS011;9648;51.130;13.978;2023-03-14T00:58:33;3.95;;;2.78;;
19030;SDS011;9648;51.130;13.978;2023-03-14T01:01:04;3.92;;;2.40;;
19030;SDS011;9648;51.130;13.978;2023-03-14T01:03:33;3.60;;;2.80;;
19030;SDS011;9648;51.130;13.978;2023-03-14T01:06:06;4.70;;;2.63;;
19030;SDS011;9648;51.130;13.978;2023-03-14T01:08:34;4.10;;;2.78;;
19030;SDS011;9648;51.130;13.978;2023-03-14T01:11:07;4.70;;;2.80;;
19030;SDS011;9648;51.130;13.978;2023-03-14T01:13:34;4.60;;;2.63;;
19030;SDS011;9648;51.130;13.978;2023-03-14T01:16:02;3.33;;;2.55;;
19030;SDS011;9648;51.130;13.978;2023-03-14T01:18:30;3.60;;;2.47;;
19030;SDS011;9648;51.130;13.978;2023-03-14T01:20:58;4.60;;;2.75;;
19030;SDS011;9648;51.130;13.978;2023-03-14T01:23:25;4.65;;;2.70;;
19030;SDS011;9648;51.130;13.978;2023-03-14T01:25:51;4.30;;;2.80;;
19030;SDS011;9648;51.130;13.978;2023-03-14T01:28:18;3.60;;;2.90;;
19030;SDS011;9648;51.130;13.978;2023-03-14T01:30:45;4.15;;;3.10;;
19030;SDS011;9648;51.130;13.978;2023-03-14T01:33:12;4.45;;;2.97;;
19030;SDS011;9648;51.130;13.978;2023-03-14T01:35:39;5.18;;;3.13;;
19030;SDS011;9648;51.130;13.978;2023-03-14T01:38:07;4.67;;;3.70;;
19030;SDS011;9648;51.130;13.978;2023-03-14T01:40:40;4.70;;;3.95;;
19030;SDS011;9648;51.130;13.978;2023-03-14T01:43:13;5.20;;;4.20;;
19030;SDS011;9648;51.130;13.978;2023-03-14T01:45:53;6.50;;;3.70;;
19030;SDS011;9648;51.130;13.978;2023-03-14T01:48:55;6.80;;;4.33;;
19030;SDS011;9648;51.130;13.978;2023-03-14T01:51:27;5.90;;;4.40;;
19030;SDS011;9648;51.130;13.978;2023-03-14T01:54:01;6.70;;;4.30;;
19030;SDS011;9648;51.130;13.978;2023-03-14T01:56:32;8.38;;;4.88;;
19030;SDS011;9648;51.130;13.978;2023-03-14T01:58:59;5.93;;;4.57;;
19030;SDS011;9648;51.130;13.978;2023-03-14T02:01:30;5.93;;;4.30;;
19030;SDS011;9648;51.130;13.978;2023-03-14T02:03:58;5.25;;;4.43;;
19030;SDS011;9648;51.130;13.978;2023-03-14T02:06:29;5.47;;;4.45;;
19030;SDS011;9648;51.130;13.978;2023-03-14T02:09:03;7.30;;;4.88;;
19030;SDS011;9648;51.130;13.978;2023-03-14T02:11:30;6.35;;;4.70;;
19030;SDS011;9648;51.130;13.978;2023-03-14T02:13:57;5.87;;;4.73;;
19030;SDS011;9648;51.130;13.978;2023-03-14T02:16:25;6.40;;;4.35;;
19030;SDS011;9648;51.130;13.978;2023-03-14T02:18:52;7.45;;;4.57;;
19030;SDS011;9648;51.130;13.978;2023-03-14T02:21:20;5.07;;;3.90;;
19030;SDS011;9648;51.130;13.978;2023-03-14T02:23:55;4.13;;;3.63;;
19030;SDS011;9648;51.130;13.978;2023-03-14T02:26:34;5.75;;;3.72;;
19030;SDS011;9648;51.130;13.978;2023-03-14T02:29:06;5.32;;;3.90;;
19030;SDS011;9648;51.130;13.978;2023-03-14T02:31:33;3.92;;;3.47;;
19030;SDS011;9648;51.130;13.978;2023-03-14T02:34:00;5.45;;;3.28;;
19030;SDS011;9648;51.130;13.978;2023-03-14T02:36:28;4.60;;;3.10;;
19030;SDS011;9648;51.130;13.978;2023-03-14T02:38:58;2.95;;;2.33;;
19030;SDS011;9648;51.130;13.978;2023-03-14T02:41:31;3.92;;;2.97;;
19030;SDS011;9648;51.130;13.978;2023-03-14T02:44:00;2.97;;;2.60;;
19030;SDS011;9648;51.130;13.978;2023-03-14T02:46:28;3.70;;;2.58;;
19030;SDS011;9648;51.130;13.978;2023-03-14T02:48:56;3.20;;;2.75;;
19030;SDS011;9648;51.130;13.978;2023-03-14T02:51:27;3.40;;;2.50;;
19030;SDS011;9648;51.130;13.978;2023-03-14T02:53:55;3.27;;;2.23;;
19030;SDS011;9648;51.130;13.978;2023-03-14T02:56:22;2.97;;;2.20;;
19030;SDS011;9648;51.130;13.978;2023-03-14T02:58:49;2.15;;;1.90;;
19030;SDS011;9648;51.130;13.978;2023-03-14T03:01:15;2.03;;;1.60;;
19030;SDS011;9648;51.130;13.978;2023-03-14T03:03:44;1.65;;;1.20;;
19030;SDS011;9648;51.130;13.978;2023-03-14T03:06:10;2.63;;;1.20;;
19030;SDS011;9648;51.130;13.978;2023-03-14T03:08:37;2.70;;;1.20;;
19030;SDS011;9648;51.130;13.978;2023-03-14T03:11:04;1.98;;;1.10;;
19030;SDS011;9648;51.130;13.978;2023-03-14T03:13:31;0.70;;;0.70;;
19030;SDS011;9648;51.130;13.978;2023-03-14T03:15:58;0.83;;;0.70;;
19030;SDS011;9648;51.130;13.978;2023-03-14T03:18:25;0.98;;;0.77;;
19030;SDS011;9648;51.130;13.978;2023-03-14T03:20:53;1.15;;;0.88;;
19030;SDS011;9648;51.130;13.978;2023-03-14T03:23:19;0.90;;;0.70;;
19030;SDS011;9648;51.130;13.978;2023-03-14T03:25:49;2.20;;;0.70;;
19030;SDS011;9648;51.130;13.978;2023-03-14T03:28:17;1.30;;;0.73;;
19030;SDS011;9648;51.130;13.978;2023-03-14T03:30:44;0.80;;;0.60;;
19030;SDS011;9648;51.130;13.978;2023-03-14T03:33:11;1.10;;;0.65;;
19030;SDS011;9648;51.130;13.978;2023-03-14T03:35:42;0.80;;;0.65;;
19030;SDS011;9648;51.130;13.978;2023-03-14T03:38:11;0.67;;;0.50;;
19030;SDS011;9648;51.130;13.978;2023-03-14T03:40:38;1.30;;;0.70;;
19030;SDS011;9648;51.130;13.978;2023-03-14T03:43:05;0.97;;;0.57;;
19030;SDS011;9648;51.130;13.978;2023-03-14T03:45:31;1.40;;;0.60;;
19030;SDS011;9648;51.130;13.978;2023-03-14T03:47:58;0.80;;;0.50;;
19030;SDS011;9648;51.130;13.978;2023-03-14T03:50:25;0.97;;;0.57;;
19030;SDS011;9648;51.130;13.978;2023-03-14T03:52:51;1.92;;;0.63;;
19030;SDS011;9648;51.130;13.978;2023-03-14T03:55:19;2.40;;;0.60;;
19030;SDS011;9648;51.130;13.978;2023-03-14T03:57:46;2.45;;;0.70;;
19030;SDS011;9648;51.130;13.978;2023-03-14T04:00:13;1.80;;;0.60;;
19030;SDS011;9648;51.130;13.978;2023-03-14T04:02:40;2.08;;;0.63;;
19030;SDS011;9648;51.130;13.978;2023-03-14T04:05:07;0.60;;;0.50;;
19030;SDS011;9648;51.130;13.978;2023-03-14T04:07:34;1.88;;;0.60;;
19030;SDS011;9648;51.130;13.978;2023-03-14T04:10:01;0.80;;;0.50;;
19030;SDS011;9648;51.130;13.978;2023-03-14T04:12:29;0.55;;;0.50;;
19030;SDS011;9648;51.130;13.978;2023-03-14T04:14:56;1.20;;;0.70;;
19030;SDS011;9648;51.130;13.978;2023-03-14T04:17:22;1.80;;;0.60;;
19030;SDS011;9648;51.130;13.978;2023-03-14T04:19:49;0.90;;;0.60;;
19030;SDS011;9648;51.130;13.978;2023-03-14T04:22:18;1.00;;;0.60;;
19030;SDS011;9648;51.130;13.978;2023-03-14T04:24:48;0.98;;;0.50;;
19030;SDS011;9648;51.130;13.978;2023-03-14T04:27:15;1.20;;;0.45;;
19030;SDS011;9648;51.130;13.978;2023-03-14T04:29:43;0.70;;;0.57;;
19030;SDS011;9648;51.130;13.978;2023-03-14T04:32:10;1.50;;;0.50;;
19030;SDS011;9648;51.130;13.978;2023-03-14T04:34:37;2.50;;;0.60;;
19030;SDS011;9648;51.130;13.978;2023-03-14T04:37:03;1.60;;;0.60;;
19030;SDS011;9648;51.130;13.978;2023-03-14T04:39:30;1.33;;;0.47;;
19030;SDS011;9648;51.130;13.978;2023-03-14T04:41:57;1.15;;;0.50;;
19030;SDS011;9648;51.130;13.978;2023-03-14T04:44:23;0.55;;;0.40;;
19030;SDS011;9648;51.130;13.978;2023-03-14T04:46:51;1.77;;;0.77;;
19030;SDS011;9648;51.130;13.978;2023-03-14T04:49:18;0.85;;;0.85;;
19030;SDS011;9648;51.130;13.978;2023-03-14T04:51:45;1.17;;;0.70;;
19030;SDS011;9648;51.130;13.978;2023-03-14T04:54:12;1.50;;;1.00;;
19030;SDS011;9648;51.130;13.978;2023-03-14T04:56:39;3.65;;;1.30;;
19030;SDS011;9648;51.130;13.978;2023-03-14T04:59:05;0.98;;;0.75;;
19030;SDS011;9648;51.130;13.978;2023-03-14T05:01:33;1.38;;;0.60;;
19030;SDS011;9648;51.130;13.978;2023-03-14T05:04:01;1.30;;;0.57;;
19030;SDS011;9648;51.130;13.978;2023-03-14T05:06:28;1.63;;;0.55;;
19030;SDS011;9648;51.130;13.978;2023-03-14T05:08:54;1.35;;;0.80;;
19030;SDS011;9648;51.130;13.978;2023-03-14T05:11:21;2.17;;;0.70;;
19030;SDS011;9648;51.130;13.978;2023-03-14T05:13:48;2.45;;;1.20;;
19030;SDS011;9648;51.130;13.978;2023-03-14T05:16:14;3.10;;;1.43;;
19030;SDS011;9648;51.130;13.978;2023-03-14T05:18:41;2.22;;;1.42;;
19030;SDS011;9648;51.130;13.978;2023-03-14T05:21:09;3.90;;;1.60;;
19030;SDS011;9648;51.130;13.978;2023-03-14T05:23:36;1.77;;;1.20;;
19030;SDS011;9648;51.130;13.978;2023-03-14T05:26:03;1.67;;;0.77;;
19030;SDS011;9648;51.130;13.978;2023-03-14T05:28:30;1.75;;;0.70;;
19030;SDS011;9648;51.130;13.978;2023-03-14T05:30:56;2.40;;;0.77;;
19030;SDS011;9648;51.130;13.978;2023-03-14T05:33:23;2.92;;;1.10;;
19030;SDS011;9648;51.130;13.978;2023-03-14T05:35:50;3.58;;;1.00;;
19030;SDS011;9648;51.130;13.978;2023-03-14T05:38:18;2.90;;;0.95;;
19030;SDS011;9648;51.130;13.978;2023-03-14T05:40:45;3.17;;;0.70;;
19030;SDS011;9648;51.130;13.978;2023-03-14T05:43:12;3.15;;;0.70;;
19030;SDS011;9648;51.130;13.978;2023-03-14T05:45:40;4.27;;;1.00;;
19030;SDS011;9648;51.130;13.978;2023-03-14T05:48:07;3.20;;;0.80;;
19030;SDS011;9648;51.130;13.978;2023-03-14T05:50:34;3.50;;;0.80;;
19030;SDS011;9648;51.130;13.978;2023-03-14T05:53:01;2.50;;;0.90;;
19030;SDS011;9648;51.130;13.978;2023-03-14T05:55:29;3.60;;;1.00;;
19030;SDS011;9648;51.130;13.978;2023-03-14T05:57:56;3.97;;;0.80;;
19030;SDS011;9648;51.130;13.978;2023-03-14T06:00:22;3.75;;;0.90;;
19030;SDS011;9648;51.130;13.978;2023-03-14T06:02:49;3.55;;;1.02;;
19030;SDS011;9648;51.130;13.978;2023-03-14T06:05:16;4.70;;;1.20;;
19030;SDS011;9648;51.130;13.978;2023-03-14T06:07:43;4.40;;;1.33;;
19030;SDS011;9648;51.130;13.978;2023-03-14T06:10:10;4.78;;;1.50;;
19030;SDS011;9648;51.130;13.978;2023-03-14T06:12:38;5.22;;;1.90;;
19030;SDS011;9648;51.130;13.978;2023-03-14T06:15:05;6.57;;;1.75;;
19030;SDS011;9648;51.130;13.978;2023-03-14T06:17:32;3.83;;;1.48;;
19030;SDS011;9648;51.130;13.978;2023-03-14T06:19:59;4.28;;;1.48;;
19030;SDS011;9648;51.130;13.978;2023-03-14T06:22:26;5.78;;;1.70;;
19030;SDS011;9648;51.130;13.978;2023-03-14T06:24:53;7.93;;;2.10;;
19030;SDS011;9648;51.130;13.978;2023-03-14T06:27:19;6.22;;;1.95;;
19030;SDS011;9648;51.130;13.978;2023-03-14T06:29:47;3.58;;;1.90;;
19030;SDS011;9648;51.130;13.978;2023-03-14T06:32:14;6.07;;;1.45;;
19030;SDS011;9648;51.130;13.978;2023-03-14T06:34:41;4.65;;;1.35;;
19030;SDS011;9648;51.130;13.978;2023-03-14T06:37:07;3.10;;;1.20;;
19030;SDS011;9648;51.130;13.978;2023-03-14T06:39:34;6.47;;;1.57;;
19030;SDS011;9648;51.130;13.978;2023-03-14T06:42:01;3.55;;;1.10;;
19030;SDS011;9648;51.130;13.978;2023-03-14T06:44:27;5.80;;;1.10;;
19030;SDS011;9648;51.130;13.978;2023-03-14T06:46:55;5.03;;;1.40;;
19030;SDS011;9648;51.130;13.978;2023-03-14T06:49:22;5.78;;;1.50;;
19030;SDS011;9648;51.130;13.978;2023-03-14T06:51:49;5.95;;;1.73;;
19030;SDS011;9648;51.130;13.978;2023-03-14T06:54:16;4.25;;;1.40;;
19030;SDS011;9648;51.130;13.978;2023-03-14T06:56:42;4.17;;;1.50;;
19030;SDS011;9648;51.130;13.978;2023-03-14T06:59:09;6.07;;;1.30;;
19030;SDS011;9648;51.130;13.978;2023-03-14T07:01:36;5.28;;;1.40;;
19030;SDS011;9648;51.130;13.978;2023-03-14T07:04:04;5.03;;;1.80;;
19030;SDS011;9648;51.130;13.978;2023-03-14T07:06:31;5.63;;;1.40;;
19030;SDS011;9648;51.130;13.978;2023-03-14T07:08:58;5.95;;;1.30;;
19030;SDS011;9648;51.130;13.978;2023-03-14T07:11:28;6.60;;;1.40;;
19030;SDS011;9648;51.130;13.978;2023-03-14T07:13:55;5.80;;;1.40;;
19030;SDS011;9648;51.130;13.978;2023-03-14T07:16:21;5.97;;;1.50;;
19030;SDS011;9648;51.130;13.978;2023-03-14T07:18:48;5.03;;;1.13;;
19030;SDS011;9648;51.130;13.978;2023-03-14T07:21:16;4.15;;;1.13;;
19030;SDS011;9648;51.130;13.978;2023-03-14T07:23:43;4.82;;;1.48;;
19030;SDS011;9648;51.130;13.978;2023-03-14T07:26:09;5.93;;;1.50;;
19030;SDS011;9648;51.130;13.978;2023-03-14T07:28:36;5.93;;;1.88;;
19030;SDS011;9648;51.130;13.978;2023-03-14T07:31:03;5.18;;;1.70;;
19030;SDS011;9648;51.130;13.978;2023-03-14T07:33:30;6.50;;;2.00;;
19030;SDS011;9648;51.130;13.978;2023-03-14T07:35:57;5.97;;;1.40;;
19030;SDS011;9648;51.130;13.978;2023-03-14T07:38:25;5.90;;;1.75;;
19030;SDS011;9648;51.130;13.978;2023-03-14T07:40:57;5.50;;;1.60;;
19030;SDS011;9648;51.130;13.978;2023-03-14T07:43:26;5.30;;;1.70;;
19030;SDS011;9648;51.130;13.978;2023-03-14T07:45:53;5.07;;;1.30;;
19030;SDS011;9648;51.130;13.978;2023-03-14T07:48:20;6.00;;;1.70;;
19030;SDS011;9648;51.130;13.978;2023-03-14T07:50:50;6.00;;;1.73;;
19030;SDS011;9648;51.130;13.978;2023-03-14T07:53:17;5.65;;;1.40;;
19030;SDS011;9648;51.130;13.978;2023-03-14T07:55:45;4.35;;;1.50;;
19030;SDS011;9648;51.130;13.978;2023-03-14T07:58:12;5.78;;;1.35;;
19030;SDS011;9648;51.130;13.978;2023-03-14T08:00:39;5.85;;;1.30;;
19030;SDS011;9648;51.130;13.978;2023-03-14T08:03:06;4.53;;;1.50;;
19030;SDS011;9648;51.130;13.978;2023-03-14T08:05:34;5.63;;;1.83;;
19030;SDS011;9648;51.130;13.978;2023-03-14T08:08:01;4.43;;;1.48;;
19030;SDS011;9648;51.130;13.978;2023-03-14T08:10:28;4.20;;;1.40;;
19030;SDS011;9648;51.130;13.978;2023-03-14T08:12:57;3.10;;;1.20;;
19030;SDS011;9648;51.130;13.978;2023-03-14T08:15:25;4.30;;;1.20;;
19030;SDS011;9648;51.130;13.978;2023-03-14T08:17:53;6.63;;;1.50;;
19030;SDS011;9648;51.130;13.978;2023-03-14T08:20:20;4.35;;;1.30;;
19030;SDS011;9648;51.130;13.978;2023-03-14T08:22:48;5.78;;;1.58;;
19030;SDS011;9648;51.130;13.978;2023-03-14T08:25:15;4.43;;;1.50;;
19030;SDS011;9648;51.130;13.978;2023-03-14T08:27:42;4.13;;;1.60;;
19030;SDS011;9648;51.130;13.978;2023-03-14T08:30:13;5.63;;;1.40;;
19030;SDS011;9648;51.130;13.978;2023-03-14T08:32:41;5.45;;;1.60;;
19030;SDS011;9648;51.130;13.978;2023-03-14T08:35:08;5.38;;;1.17;;
19030;SDS011;9648;51.130;13.978;2023-03-14T08:37:35;4.45;;;1.20;;
19030;SDS011;9648;51.130;13.978;2023-03-14T08:40:02;3.30;;;1.20;;
19030;SDS011;9648;51.130;13.978;2023-03-14T08:42:31;3.20;;;1.13;;
19030;SDS011;9648;51.130;13.978;2023-03-14T08:44:58;3.08;;;1.00;;
19030;SDS011;9648;51.130;13.978;2023-03-14T08:47:27;3.28;;;1.10;;
19030;SDS011;9648;51.130;13.978;2023-03-14T08:49:54;5.28;;;1.60;;
19030;SDS011;9648;51.130;13.978;2023-03-14T08:52:20;3.30;;;1.52;;
19030;SDS011;9648;51.130;13.978;2023-03-14T08:54:47;3.92;;;1.25;;
19030;SDS011;9648;51.130;13.978;2023-03-14T08:57:14;4.50;;;1.30;;
19030;SDS011;9648;51.130;13.978;2023-03-14T08:59:41;3.42;;;1.05;;
19030;SDS011;9648;51.130;13.978;2023-03-14T09:02:08;4.43;;;1.03;;
19030;SDS011;9648;51.130;13.978;2023-03-14T09:04:38;2.72;;;1.00;;
19030;SDS011;9648;51.130;13.978;2023-03-14T09:07:05;3.45;;;1.30;;
19030;SDS011;9648;51.130;13.978;2023-03-14T09:09:31;4.22;;;1.13;;
19030;SDS011;9648;51.130;13.978;2023-03-14T09:11:58;2.30;;;0.90;;
19030;SDS011;9648;51.130;13.978;2023-03-14T09:14:25;2.75;;;0.95;;
19030;SDS011;9648;51.130;13.978;2023-03-14T09:16:51;2.30;;;1.00;;
19030;SDS011;9648;51.130;13.978;2023-03-14T09:19:18;1.98;;;0.60;;
19030;SDS011;9648;51.130;13.978;2023-03-14T09:21:48;3.75;;;0.80;;
19030;SDS011;9648;51.130;13.978;2023-03-14T09:24:15;4.50;;;1.30;;
19030;SDS011;9648;51.130;13.978;2023-03-14T09:26:42;3.03;;;0.97;;
19030;SDS011;9648;51.130;13.978;2023-03-14T09:29:09;2.65;;;1.10;;
19030;SDS011;9648;51.130;13.978;2023-03-14T09:31:54;2.08;;;0.80;;
19030;SDS011;9648;51.130;13.978;2023-03-14T09:34:22;3.58;;;0.98;;
19030;SDS011;9648;51.130;13.978;2023-03-14T09:36:50;2.63;;;1.00;;
19030;SDS011;9648;51.130;13.978;2023-03-14T09:39:17;3.03;;;1.33;;
19030;SDS011;9648;51.130;13.978;2023-03-14T09:41:44;8.38;;;3.47;;
19030;SDS011;9648;51.130;13.978;2023-03-14T09:44:19;7.32;;;4.18;;
19030;SDS011;9648;51.130;13.978;2023-03-14T09:46:51;7.15;;;3.90;;
19030;SDS011;9648;51.130;13.978;2023-03-14T09:49:22;3.92;;;2.10;;
19030;SDS011;9648;51.130;13.978;2023-03-14T09:51:54;2.90;;;1.10;;
19030;SDS011;9648;51.130;13.978;2023-03-14T09:54:26;3.30;;;1.10;;
19030;SDS011;9648;51.130;13.978;2023-03-14T09:56:57;3.17;;;0.80;;
19030;SDS011;9648;51.130;13.978;2023-03-14T09:59:24;5.45;;;1.00;;
19030;SDS011;9648;51.130;13.978;2023-03-14T10:01:53;1.58;;;0.70;;
19030;SDS011;9648;51.130;13.978;2023-03-14T10:04:21;3.85;;;0.98;;
19030;SDS011;9648;51.130;13.978;2023-03-14T10:06:49;2.10;;;0.70;;
19030;SDS011;9648;51.130;13.978;2023-03-14T10:09:19;3.17;;;1.00;;
19030;SDS011;9648;51.130;13.978;2023-03-14T10:11:51;5.78;;;1.35;;
19030;SDS011;9648;51.130;13.978;2023-03-14T10:14:28;3.80;;;1.05;;
19030;SDS011;9648;51.130;13.978;2023-03-14T10:16:59;2.95;;;0.90;;
19030;SDS011;9648;51.130;13.978;2023-03-14T10:19:32;1.67;;;0.73;;
19030;SDS011;9648;51.130;13.978;2023-03-14T10:22:00;2.33;;;0.80;;
19030;SDS011;9648;51.130;13.978;2023-03-14T10:24:31;2.85;;;1.00;;
19030;SDS011;9648;51.130;13.978;2023-03-14T10:27:00;2.25;;;0.93;;
19030;SDS011;9648;51.130;13.978;2023-03-14T10:29:28;2.42;;;1.00;;
19030;SDS011;9648;51.130;13.978;2023-03-14T10:31:58;3.17;;;0.90;;
19030;SDS011;9648;51.130;13.978;2023-03-14T10:34:26;3.30;;;1.20;;
19030;SDS011;9648;51.130;13.978;2023-03-14T10:36:55;2.75;;;1.00;;
19030;SDS011;9648;51.130;13.978;2023-03-14T10:39:28;2.15;;;0.95;;
19030;SDS011;9648;51.130;13.978;2023-03-14T10:42:03;2.53;;;1.10;;
19030;SDS011;9648;51.130;13.978;2023-03-14T10:44:33;1.98;;;0.80;;
19030;SDS011;9648;51.130;13.978;2023-03-14T10:47:01;3.00;;;0.80;;
19030;SDS011;9648;51.130;13.978;2023-03-14T10:49:30;3.05;;;0.98;;
19030;SDS011;9648;51.130;13.978;2023-03-14T10:52:02;2.00;;;1.00;;
19030;SDS011;9648;51.130;13.978;2023-03-14T10:54:41;1.30;;;0.70;;
19030;SDS011;9648;51.130;13.978;2023-03-14T10:57:12;3.30;;;0.80;;
19030;SDS011;9648;51.130;13.978;2023-03-14T10:59:39;2.38;;;0.93;;
19030;SDS011;9648;51.130;13.978;2023-03-14T11:02:13;2.90;;;1.10;;
19030;SDS011;9648;51.130;13.978;2023-03-14T11:04:56;3.30;;;0.90;;
19030;SDS011;9648;51.130;13.978;2023-03-14T11:07:31;2.70;;;0.70;;
19030;SDS011;9648;51.130;13.978;2023-03-14T11:10:07;2.05;;;0.80;;
19030;SDS011;9648;51.130;13.978;2023-03-14T11:12:42;2.67;;;0.90;;
19030;SDS011;9648;51.130;13.978;2023-03-14T11:15:19;2.28;;;1.00;;
19030;SDS011;9648;51.130;13.978;2023-03-14T11:17:54;4.45;;;1.60;;
19030;SDS011;9648;51.130;13.978;2023-03-14T11:20:44;8.20;;;4.00;;
19030;SDS011;9648;51.130;13.978;2023-03-14T11:23:20;2.88;;;1.35;;
19030;SDS011;9648;51.130;13.978;2023-03-14T11:25:51;3.95;;;2.00;;
19030;SDS011;9648;51.130;13.978;2023-03-14T11:28:23;5.78;;;2.60;;
19030;SDS011;9648;51.130;13.978;2023-03-14T11:30:58;5.05;;;2.00;;
19030;SDS011;9648;51.130;13.978;2023-03-14T11:33:36;6.60;;;2.28;;
19030;SDS011;9648;51.130;13.978;2023-03-14T11:36:06;2.13;;;1.30;;
19030;SDS011;9648;51.130;13.978;2023-03-14T11:38:36;3.17;;;0.90;;
19030;SDS011;9648;51.130;13.978;2023-03-14T11:41:10;3.70;;;0.80;;
19030;SDS011;9648;51.130;13.978;2023-03-14T11:43:41;2.85;;;0.95;;
19030;SDS011;9648;51.130;13.978;2023-03-14T11:46:14;2.95;;;1.00;;
19030;SDS011;9648;51.130;13.978;2023-03-14T11:48:50;2.17;;;1.00;;
19030;SDS011;9648;51.130;13.978;2023-03-14T11:51:25;3.42;;;0.90;;
19030;SDS011;9648;51.130;13.978;2023-03-14T11:53:58;1.77;;;0.90;;
19030;SDS011;9648;51.130;13.978;2023-03-14T11:56:33;2.55;;;1.10;;
19030;SDS011;9648;51.130;13.978;2023-03-14T11:59:04;2.67;;;0.90;;
19030;SDS011;9648;51.130;13.978;2023-03-14T12:01:40;2.30;;;0.90;;
19030;SDS011;9648;51.130;13.978;2023-03-14T12:04:19;1.70;;;0.97;;
19030;SDS011;9648;51.130;13.978;2023-03-14T12:07:01;3.35;;;1.10;;
19030;SDS011;9648;51.130;13.978;2023-03-14T12:09:32;3.17;;;1.00;;
19030;SDS011;9648;51.130;13.978;2023-03-14T12:12:02;2.20;;;1.13;;
19030;SDS011;9648;51.130;13.978;2023-03-14T12:14:31;2.47;;;0.90;;
19030;SDS011;9648;51.130;13.978;2023-03-14T12:17:03;2.40;;;0.83;;
19030;SDS011;9648;51.130;13.978;2023-03-14T12:19:33;1.33;;;0.70;;
19030;SDS011;9648;51.130;13.978;2023-03-14T12:22:22;2.10;;;1.05;;
19030;SDS011;9648;51.130;13.978;2023-03-14T12:24:53;3.30;;;1.80;;
19030;SDS011;9648;51.130;13.978;2023-03-14T12:27:42;2.50;;;1.17;;
19030;SDS011;9648;51.130;13.978;2023-03-14T12:30:15;4.10;;;1.25;;
19030;SDS011;9648;51.130;13.978;2023-03-14T12:35:53;3.15;;;1.20;;
19030;SDS011;9648;51.130;13.978;2023-03-14T12:38:27;2.60;;;1.00;;
19030;SDS011;9648;51.130;13.978;2023-03-14T12:41:05;3.45;;;0.98;;
19030;SDS011;9648;51.130;13.978;2023-03-14T12:43:40;3.22;;;0.88;;
19030;SDS011;9648;51.130;13.978;2023-03-14T12:46:08;2.65;;;0.90;;
19030;SDS011;9648;51.130;13.978;2023-03-14T12:48:45;2.08;;;0.77;;
19030;SDS011;9648;51.130;13.978;2023-03-14T12:51:13;2.50;;;0.80;;
19030;SDS011;9648;51.130;13.978;2023-03-14T12:53:49;2.88;;;0.98;;
19030;SDS011;9648;51.130;13.978;2023-03-14T12:56:34;2.13;;;0.90;;
19030;SDS011;9648;51.130;13.978;2023-03-14T12:59:23;3.38;;;1.40;;
19030;SDS011;9648;51.130;13.978;2023-03-14T13:01:58;2.80;;;1.30;;
19030;SDS011;9648;51.130;13.978;2023-03-14T13:04:29;3.67;;;1.15;;
19030;SDS011;9648;51.130;13.978;2023-03-14T13:06:59;3.22;;;1.20;;
19030;SDS011;9648;51.130;13.978;2023-03-14T13:12:28;2.72;;;1.00;;
19030;SDS011;9648;51.130;13.978;2023-03-14T13:15:02;1.38;;;0.60;;
19030;SDS011;9648;51.130;13.978;2023-03-14T13:17:41;1.50;;;0.80;;
19030;SDS011;9648;51.130;13.978;2023-03-14T13:20:10;1.87;;;0.70;;
19030;SDS011;9648;51.130;13.978;2023-03-14T13:22:45;2.30;;;0.60;;
19030;SDS011;9648;51.130;13.978;2023-03-14T13:25:13;0.82;;;0.40;;
19030;SDS011;9648;51.130;13.978;2023-03-14T13:27:41;1.13;;;0.60;;
19030;SDS011;9648;51.130;13.978;2023-03-14T13:30:16;1.52;;;0.50;;
19030;SDS011;9648;51.130;13.978;2023-03-14T13:32:46;2.22;;;0.40;;
19030;SDS011;9648;51.130;13.978;2023-03-14T13:35:15;1.65;;;0.55;;
19030;SDS011;9648;51.130;13.978;2023-03-14T13:37:45;2.05;;;0.52;;
19030;SDS011;9648;51.130;13.978;2023-03-14T13:40:20;2.08;;;0.70;;
19030;SDS011;9648;51.130;13.978;2023-03-14T13:43:09;2.70;;;0.95;;
19030;SDS011;9648;51.130;13.978;2023-03-14T13:45:42;9.02;;;1.27;;
19030;SDS011;9648;51.130;13.978;2023-03-14T13:48:22;1.30;;;0.50;;
19030;SDS011;9648;51.130;13.978;2023-03-14T13:50:54;1.30;;;0.38;;
19030;SDS011;9648;51.130;13.978;2023-03-14T13:53:24;1.80;;;0.50;;
19030;SDS011;9648;51.130;13.978;2023-03-14T13:55:51;1.90;;;0.65;;
19030;SDS011;9648;51.130;13.978;2023-03-14T13:58:20;1.92;;;0.80;;
19030;SDS011;9648;51.130;13.978;2023-03-14T14:00:57;2.65;;;0.80;;
19030;SDS011;9648;51.130;13.978;2023-03-14T14:03:27;0.95;;;0.57;;
19030;SDS011;9648;51.130;13.978;2023-03-14T14:05:56;1.55;;;0.60;;
19030;SDS011;9648;51.130;13.978;2023-03-14T14:08:24;1.73;;;0.80;;
19030;SDS011;9648;51.130;13.978;2023-03-14T14:10:52;1.42;;;0.68;;
19030;SDS011;9648;51.130;13.978;2023-03-14T14:13:22;1.58;;;0.50;;
19030;SDS011;9648;51.130;13.978;2023-03-14T14:15:51;1.88;;;0.68;;
19030;SDS011;9648;51.130;13.978;2023-03-14T14:18:22;1.00;;;0.50;;
19030;SDS011;9648;51.130;13.978;2023-03-14T14:20:51;1.10;;;0.68;;
19030;SDS011;9648;51.130;13.978;2023-03-14T14:23:19;1.58;;;0.50;;
19030;SDS011;9648;51.130;13.978;2023-03-14T14:25:50;1.38;;;0.50;;
19030;SDS011;9648;51.130;13.978;2023-03-14T14:28:20;0.82;;;0.50;;
19030;SDS011;9648;51.130;13.978;2023-03-14T14:33:52;1.73;;;0.50;;
19030;SDS011;9648;51.130;13.978;2023-03-14T14:36:21;1.67;;;0.30;;
19030;SDS011;9648;51.130;13.978;2023-03-14T14:38:50;1.83;;;0.40;;
19030;SDS011;9648;51.130;13.978;2023-03-14T14:41:18;1.42;;;0.40;;
19030;SDS011;9648;51.130;13.978;2023-03-14T14:43:45;1.10;;;0.70;;
19030;SDS011;9648;51.130;13.978;2023-03-14T14:46:15;2.50;;;0.60;;
19030;SDS011;9648;51.130;13.978;2023-03-14T14:48:48;0.70;;;0.43;;
19030;SDS011;9648;51.130;13.978;2023-03-14T14:51:26;0.80;;;0.50;;
19030;SDS011;9648;51.130;13.978;2023-03-14T14:54:02;0.68;;;0.50;;
19030;SDS011;9648;51.130;13.978;2023-03-14T14:56:35;2.50;;;0.80;;
19030;SDS011;9648;51.130;13.978;2023-03-14T14:59:03;1.00;;;0.57;;
19030;SDS011;9648;51.130;13.978;2023-03-14T15:01:35;2.07;;;1.00;;
19030;SDS011;9648;51.130;13.978;2023-03-14T15:04:09;2.20;;;1.00;;
19030;SDS011;9648;51.130;13.978;2023-03-14T15:06:38;1.10;;;0.68;;
19030;SDS011;9648;51.130;13.978;2023-03-14T15:09:08;0.63;;;0.40;;
19030;SDS011;9648;51.130;13.978;2023-03-14T15:11:36;1.80;;;0.73;;